Time;durP1;ratioP1;P1;durP2;ratioP2;P2;SDS_P1;SDS_P2;PMS_P1;PMS_P2;Temp;Humidity;BMP_temperature;BMP_pressure;BME280_temperature;BME280_humidity;BME280_pressure;Samples;Min_cycle;Max_cycle;Signal;HPM_P1;HPM_P2
2021/07/01 00:00:08;;;;;;;12.37;11.77;;;;;;;13.52;100.00;96617.38;5110726;28;20262;-57
2021/07/01 00:02:34;;;;;;;10.83;10.33;;;;;;;13.60;100.00;96619.56;5107440;28;20203;-56
2021/07/01 00:04:59;;;;;;;11.37;10.77;;;;;;;13.52;100.00;96624.50;5100509;28;20187;-59
2021/07/01 00:07:24;;;;;;;14.30;13.57;;;;;;;13.43;100.00;96633.91;5100217;28;20192;-55
2021/07/01 00:09:50;;;;;;;14.90;13.97;;;;;;;13.50;100.00;96624.72;5106834;28;20282;-55
2021/07/01 00:12:15;;;;;;;12.50;11.90;;;;;;;13.51;100.00;96623.69;5109961;28;20188;-51
2021/07/01 00:14:41;;;;;;;14.50;13.80;;;;;;;13.49;100.00;96620.50;5096674;28;20180;-56
2021/07/01 00:17:06;;;;;;;14.97;14.27;;;;;;;13.60;100.00;96624.03;5111313;28;20184;-55
2021/07/01 00:19:31;;;;;;;14.33;13.53;;;;;;;13.61;100.00;96626.41;5095901;28;20263;-58
2021/07/01 00:21:57;;;;;;;13.80;13.13;;;;;;;13.44;100.00;96619.66;5108455;28;20211;-53
2021/07/01 00:24:22;;;;;;;13.20;12.60;;;;;;;13.44;100.00;96623.09;5093020;28;20188;-54
2021/07/01 00:26:48;;;;;;;14.60;13.90;;;;;;;13.55;100.00;96629.25;5096115;28;20706;-55
2021/07/01 00:29:13;;;;;;;15.27;14.57;;;;;;;13.61;100.00;96621.16;5095162;28;20314;-52
2021/07/01 00:31:39;;;;;;;13.97;13.27;;;;;;;13.59;100.00;96623.25;5093516;28;20184;-57
2021/07/01 00:34:04;;;;;;;15.33;14.53;;;;;;;13.51;100.00;96622.91;5094974;28;20176;-60
2021/07/01 00:36:30;;;;;;;12.90;12.30;;;;;;;13.62;100.00;96629.84;5104792;28;20195;-54
2021/07/01 00:38:55;;;;;;;11.97;11.47;;;;;;;13.58;100.00;96636.66;5091897;28;20235;-55
2021/07/01 00:41:20;;;;;;;14.23;13.43;;;;;;;13.40;100.00;96623.84;5108206;28;20788;-55
2021/07/01 00:43:47;;;;;;;15.27;14.57;;;;;;;13.46;100.00;96625.47;5096390;28;20203;-56
2021/07/01 00:46:13;;;;;;;12.80;12.13;;;;;;;13.65;100.00;96635.41;5102562;28;20172;-54
2021/07/01 00:48:39;;;;;;;12.37;11.77;;;;;;;13.52;100.00;96627.94;5092178;28;20669;-56
2021/07/01 00:51:04;;;;;;;13.47;12.87;;;;;;;13.60;100.00;96627.47;5094031;28;20184;-60
2021/07/01 00:53:31;;;;;;;15.43;14.67;;;;;;;13.65;100.00;96634.63;5101528;28;20204;-55
2021/07/01 00:55:56;;;;;;;13.80;13.10;;;;;;;13.63;100.00;96634.09;5101155;28;20196;-51
2021/07/01 00:58:23;;;;;;;14.60;13.90;;;;;;;13.71;100.00;96634.41;5104526;28;20802;-54
2021/07/01 01:01:01;;;;;;;15.47;14.77;;;;;;;13.62;100.00;96629.84;5094581;28;20525;-56
2021/07/01 01:03:26;;;;;;;14.57;13.87;;;;;;;13.56;100.00;96625.56;5089736;28;20209;-55
2021/07/01 01:05:52;;;;;;;13.70;13.10;;;;;;;13.46;100.00;96633.38;5100493;28;20198;-56
2021/07/01 01:08:17;;;;;;;12.03;11.53;;;;;;;13.43;100.00;96628.63;5089189;28;20180;-55
2021/07/01 01:10:42;;;;;;;10.57;9.97;;;;;;;13.47;100.00;96633.16;5107818;28;20556;-55
2021/07/01 01:13:10;;;;;;;8.93;8.53;;;;;;;13.55;100.00;96637.16;5092889;28;20184;-54
2021/07/01 01:15:35;;;;;;;9.00;8.60;;;;;;;13.61;100.00;96634.31;5105815;28;20618;-53
2021/07/01 01:18:01;;;;;;;8.17;7.77;;;;;;;13.46;100.00;96633.38;5101042;28;20183;-54
2021/07/01 01:20:26;;;;;;;9.20;8.80;;;;;;;13.48;100.00;96632.09;5102122;28;20195;-54
2021/07/01 01:22:52;;;;;;;9.60;9.20;;;;;;;13.38;100.00;96636.44;5109069;28;20199;-52
2021/07/01 01:25:17;;;;;;;8.00;7.70;;;;;;;13.49;100.00;96628.41;5093616;28;20195;-55
2021/07/01 01:27:42;;;;;;;9.00;8.50;;;;;;;13.51;100.00;96628.97;5111099;28;20202;-54
2021/07/01 01:30:09;;;;;;;9.87;9.47;;;;;;;13.56;100.00;96631.66;5108979;28;20188;-56
2021/07/01 01:32:34;;;;;;;7.80;7.50;;;;;;;13.58;100.00;96619.03;5109715;28;20231;-56
2021/07/01 01:35:00;;;;;;;9.67;9.27;;;;;;;13.52;100.00;96625.28;5095949;28;20199;-54
2021/07/01 01:37:25;;;;;;;8.37;8.00;;;;;;;13.53;100.00;96623.47;5102185;28;20173;-55
2021/07/01 01:39:51;;;;;;;6.90;6.60;;;;;;;13.56;100.00;96623.75;5093765;28;20228;-53
2021/07/01 01:42:18;;;;;;;7.00;6.70;;;;;;;13.72;100.00;96628.09;5101751;28;20200;-56
2021/07/01 01:44:43;;;;;;;6.07;5.77;;;;;;;13.64;100.00;96625.13;5096612;28;20184;-56
2021/07/01 01:47:20;;;;;;;4.77;4.57;;;;;;;13.61;100.00;96629.06;5100399;28;20180;-55
2021/07/01 01:49:46;;;;;;;4.97;4.77;;;;;;;13.65;100.00;96632.78;5095982;28;20184;-56
2021/07/01 01:52:13;;;;;;;4.90;4.70;;;;;;;13.59;100.00;96627.72;5106928;28;20262;-56
2021/07/01 01:54:38;;;;;;;3.70;3.60;;;;;;;13.64;100.00;96636.47;5096525;28;20214;-55
2021/07/01 01:57:04;;;;;;;3.73;3.63;;;;;;;13.66;100.00;96636.19;5102024;28;20275;-58
2021/07/01 01:59:29;;;;;;;3.20;3.10;;;;;;;13.87;99.96;96634.56;5110385;28;20188;-55
2021/07/01 02:01:54;;;;;;;3.47;3.27;;;;;;;13.82;100.00;96635.28;5110889;28;20201;-54
2021/07/01 02:04:20;;;;;;;2.73;2.63;;;;;;;13.67;100.00;96630.69;5095863;28;20184;-56
2021/07/01 02:06:45;;;;;;;3.93;3.83;;;;;;;13.70;100.00;96637.31;5105920;28;20192;-57
2021/07/01 02:09:10;;;;;;;2.43;2.33;;;;;;;13.68;100.00;96634.94;5113228;28;20266;-55
2021/07/01 02:11:36;;;;;;;1.97;1.97;;;;;;;13.62;100.00;96633.28;5098025;28;20649;-51
2021/07/01 02:14:01;;;;;;;5.07;1.67;;;;;;;13.73;100.00;96634.16;5111260;28;20176;-57
2021/07/01 02:16:27;;;;;;;1.97;1.87;;;;;;;13.82;100.00;96631.91;5100924;28;20188;-55
2021/07/01 02:18:52;;;;;;;2.13;2.10;;;;;;;13.76;100.00;96636.31;5098777;28;20184;-57
2021/07/01 02:21:19;;;;;;;1.93;1.93;;;;;;;13.78;100.00;96639.47;5110624;28;20187;-57
2021/07/01 02:23:44;;;;;;;2.40;2.30;;;;;;;13.84;100.00;96630.59;5096330;28;20191;-54
2021/07/01 02:26:10;;;;;;;1.97;1.90;;;;;;;13.79;100.00;96646.34;5104715;28;20234;-56
2021/07/01 02:28:35;;;;;;;2.57;2.47;;;;;;;13.79;100.00;96646.34;5094420;28;20716;-55
2021/07/01 02:31:00;;;;;;;2.10;1.53;;;;;;;13.75;100.00;96645.25;5109778;28;20187;-56
2021/07/01 02:33:26;;;;;;;1.73;1.63;;;;;;;13.76;100.00;96643.44;5106605;28;20276;-57
2021/07/01 02:35:52;;;;;;;1.90;1.80;;;;;;;13.91;99.79;96636.44;5093229;28;20195;-55
2021/07/01 02:38:17;;;;;;;1.80;1.80;;;;;;;13.99;98.73;96643.06;5100096;28;20224;-54
2021/07/01 02:40:43;;;;;;;1.40;1.40;;;;;;;13.86;99.52;96644.31;5104029;28;20192;-55
2021/07/01 02:43:08;;;;;;;1.60;1.60;;;;;;;13.78;100.00;96643.94;5108572;28;20204;-61
2021/07/01 02:45:34;;;;;;;1.77;1.77;;;;;;;13.85;100.00;96641.91;5096559;28;20176;-55
2021/07/01 02:47:59;;;;;;;2.33;2.07;;;;;;;13.85;99.48;96647.19;5113909;28;20562;-57
2021/07/01 02:50:26;;;;;;;1.40;1.40;;;;;;;13.87;99.76;96650.38;5107639;28;20706;-56
2021/07/01 02:52:51;;;;;;;1.40;1.40;;;;;;;13.82;99.47;96645.84;5097532;28;20192;-55
2021/07/01 02:55:17;;;;;;;1.60;1.57;;;;;;;13.95;98.86;96639.34;5104221;28;20188;-57
2021/07/01 02:57:42;;;;;;;1.43;1.33;;;;;;;13.91;99.28;96646.19;5099765;28;20180;-57
2021/07/01 03:00:11;;;;;;;1.00;1.00;;;;;;;13.87;99.26;96650.38;5109787;28;20640;-61
2021/07/01 03:02:36;;;;;;;1.10;1.10;;;;;;;13.87;98.89;96648.53;5098459;28;20200;-55
2021/07/01 03:05:03;;;;;;;1.20;1.20;;;;;;;13.74;99.78;96641.84;5113153;28;20179;-54
2021/07/01 03:07:29;;;;;;;1.40;1.40;;;;;;;13.87;99.49;96638.00;5100471;28;20181;-51
2021/07/01 03:09:54;;;;;;;1.20;1.20;;;;;;;13.87;99.40;96645.09;5104636;28;20184;-56
2021/07/01 03:12:20;;;;;;;1.43;1.30;;;;;;;13.89;99.45;96650.91;5095515;28;20180;-56
2021/07/01 03:14:45;;;;;;;1.40;1.40;;;;;;;13.92;99.37;96650.41;5107704;28;20579;-57
2021/07/01 03:17:10;;;;;;;1.67;1.67;;;;;;;13.91;99.33;96646.97;5091354;28;20176;-59
2021/07/01 03:19:36;;;;;;;1.53;1.43;;;;;;;14.02;97.91;96653.94;5104920;28;20625;-55
2021/07/01 03:22:01;;;;;;;2.30;2.10;;;;;;;13.85;98.49;96647.19;5098257;28;20235;-56
2021/07/01 03:24:27;;;;;;;2.20;2.00;;;;;;;13.80;98.31;96641.88;5094424;28;20177;-56
2021/07/01 03:26:53;;;;;;;1.60;1.50;;;;;;;13.74;99.47;96641.03;5105827;28;20176;-56
2021/07/01 03:29:19;;;;;;;1.27;1.23;;;;;;;13.81;98.78;96648.75;5103977;28;20172;-53
2021/07/01 03:31:44;;;;;;;1.37;1.27;;;;;;;13.87;98.05;96643.28;5094492;28;20181;-56
2021/07/01 03:34:09;;;;;;;1.30;1.30;;;;;;;13.69;98.90;96641.00;5095911;28;20184;-60
2021/07/01 03:36:35;;;;;;;1.37;1.27;;;;;;;13.79;98.77;96643.72;5091429;28;20259;-56
2021/07/01 03:39:03;;;;;;;1.47;1.47;;;;;;;13.69;99.94;96643.63;5100869;28;20238;-57
2021/07/01 03:41:30;;;;;;;1.90;1.80;;;;;;;13.71;100.00;96647.59;5107227;28;20263;-56
2021/07/01 03:43:55;;;;;;;2.43;2.33;;;;;;;13.62;100.00;96641.19;5100750;28;20196;-56
2021/07/01 03:46:20;;;;;;;2.20;2.10;;;;;;;13.87;98.77;96650.38;5107402;28;20191;-56
2021/07/01 03:48:46;;;;;;;2.60;2.40;;;;;;;13.83;99.03;96642.16;5107077;28;20230;-56
2021/07/01 03:51:11;;;;;;;3.37;3.17;;;;;;;13.74;99.93;96641.03;5101575;28;20180;-61
2021/07/01 03:53:37;;;;;;;2.77;2.67;;;;;;;13.78;100.00;96646.59;5099933;28;20276;-56
2021/07/01 03:56:02;;;;;;;3.73;3.40;;;;;;;13.79;100.00;96638.44;5108878;28;20184;-56
2021/07/01 03:58:28;;;;;;;4.03;3.70;;;;;;;13.73;100.00;96649.97;5090963;28;20912;-53
2021/07/01 04:00:53;;;;;;;3.63;3.53;;;;;;;13.82;100.00;96645.84;5092458;28;20676;-54
2021/07/01 04:03:18;;;;;;;2.87;2.77;;;;;;;13.49;100.00;96643.41;5100986;28;20207;-57
2021/07/01 04:05:44;;;;;;;3.10;3.00;;;;;;;13.54;100.00;96651.38;5099761;28;20180;-60
2021/07/01 04:08:09;;;;;;;2.80;2.70;;;;;;;13.59;100.00;96652.22;5107793;28;20195;-61
2021/07/01 04:10:35;;;;;;;3.10;3.00;;;;;;;13.72;100.00;96658.91;5095394;28;20649;-56
2021/07/01 04:13:00;;;;;;;2.73;2.63;;;;;;;13.71;100.00;96660.75;5107453;28;20263;-58
2021/07/01 04:15:26;;;;;;;3.10;2.90;;;;;;;13.76;100.00;96657.41;5101577;28;20184;-59
2021/07/01 04:17:51;;;;;;;3.53;3.43;;;;;;;13.78;100.00;96660.56;5112582;28;20289;-56
2021/07/01 04:20:18;;;;;;;3.60;3.37;;;;;;;13.84;100.00;96664.03;5093820;28;20242;-56
2021/07/01 04:22:43;;;;;;;3.33;3.23;;;;;;;13.90;99.99;96668.31;5108222;28;20287;-56
2021/07/01 04:25:09;;;;;;;2.63;2.53;;;;;;;13.92;99.77;96672.28;5092332;28;20264;-60
2021/07/01 04:27:35;;;;;;;3.27;3.07;;;;;;;13.82;99.70;96672.19;5103770;28;20594;-56
2021/07/01 04:30:00;;;;;;;3.03;2.93;;;;;;;13.94;99.79;96664.13;5090515;28;20177;-56
2021/07/01 04:32:26;;;;;;;2.77;2.67;;;;;;;13.86;99.38;96667.22;5107750;28;20255;-56
2021/07/01 04:34:51;;;;;;;2.33;2.23;;;;;;;13.89;99.57;96664.06;5092609;28;20180;-57
2021/07/01 04:37:16;;;;;;;2.77;2.67;;;;;;;14.06;97.99;96670.81;5099875;28;20188;-56
2021/07/01 04:39:42;;;;;;;2.60;2.50;;;;;;;13.99;98.79;96666.78;5112658;28;20231;-54
2021/07/01 04:42:07;;;;;;;3.00;2.90;;;;;;;14.16;97.03;96673.53;5090514;28;20236;-54
2021/07/01 04:44:32;;;;;;;3.57;3.40;;;;;;;14.13;97.12;96671.41;5100736;28;20185;-55
2021/07/01 04:46:58;;;;;;;2.73;2.63;;;;;;;14.10;97.49;96668.47;5112068;28;20644;-56
2021/07/01 04:49:23;;;;;;;1.90;1.90;;;;;;;14.14;97.32;96673.00;5102362;28;20629;-56
2021/07/01 04:51:48;;;;;;;1.83;1.83;;;;;;;14.12;97.93;96674.28;5092241;28;20590;-54
2021/07/01 04:54:14;;;;;;;1.77;1.70;;;;;;;14.19;97.29;96680.16;5093436;28;20184;-59
2021/07/01 04:56:43;;;;;;;1.90;1.90;;;;;;;14.13;96.81;96671.41;5108550;28;20209;-54
2021/07/01 04:59:14;;;;;;;1.40;1.40;;;;;;;14.09;96.99;96666.91;5092006;28;20177;-55
2021/07/01 05:01:39;;;;;;;1.70;1.70;;;;;;;14.08;97.42;96670.56;5102155;28;20271;-58
2021/07/01 05:04:09;;;;;;;1.67;1.63;;;;;;;14.30;96.64;96673.13;5111299;28;20221;-54
2021/07/01 05:06:36;;;;;;;1.97;1.87;;;;;;;14.22;97.35;96678.84;5093820;28;20180;-52
2021/07/01 05:09:03;;;;;;;2.03;1.93;;;;;;;14.31;97.11;96672.88;5106790;28;20192;-59
2021/07/01 05:11:30;;;;;;;2.43;2.33;;;;;;;14.42;95.95;96686.97;5099546;28;20265;-55
2021/07/01 05:13:55;;;;;;;1.80;1.70;;;;;;;14.48;95.19;96678.84;5098622;28;20657;-55
2021/07/01 05:16:21;;;;;;;1.57;1.57;;;;;;;14.44;96.15;96680.38;5106165;28;20211;-60
2021/07/01 05:18:46;;;;;;;1.60;1.50;;;;;;;14.48;95.91;96670.91;5099181;28;20172;-56
2021/07/01 05:21:11;;;;;;;1.90;1.80;;;;;;;14.56;95.12;96678.34;5097061;28;20186;-59
2021/07/01 05:23:37;;;;;;;1.50;1.50;;;;;;;14.50;95.76;96679.34;5093714;28;20204;-53
2021/07/01 05:26:02;;;;;;;1.50;1.50;;;;;;;14.49;95.06;96679.59;5093155;28;20203;-55
2021/07/01 05:28:28;;;;;;;1.33;1.23;;;;;;;14.44;96.03;96682.22;5089046;28;20269;-57
2021/07/01 05:30:53;;;;;;;1.43;1.43;;;;;;;14.60;94.73;96689.16;5107753;28;20184;-58
2021/07/01 05:33:18;;;;;;;1.63;1.53;;;;;;;14.57;95.57;96693.13;5102450;28;20653;-58
2021/07/01 05:35:44;;;;;;;1.40;1.40;;;;;;;14.61;95.03;96688.13;5097111;28;20175;-57
2021/07/01 05:38:09;;;;;;;2.10;1.30;;;;;;;14.79;94.49;96687.72;5102166;28;20216;-58
2021/07/01 05:40:34;;;;;;;1.30;1.30;;;;;;;14.82;93.97;96684.56;5110986;28;20180;-58
2021/07/01 05:43:01;;;;;;;1.30;1.20;;;;;;;14.95;93.53;96680.66;5096538;28;20200;-59
2021/07/01 05:45:26;;;;;;;1.37;1.27;;;;;;;15.08;93.01;96688.13;5103352;28;20522;-58
2021/07/01 05:47:52;;;;;;;1.63;1.37;;;;;;;15.14;91.40;96684.47;5102951;28;20198;-55
2021/07/01 05:50:17;;;;;;;1.57;1.20;;;;;;;15.24;90.90;96687.16;5110318;28;20188;-58
2021/07/01 05:52:46;;;;;;;1.07;1.07;;;;;;;15.28;90.26;96682.94;5109412;28;20202;-59
2021/07/01 05:55:12;;;;;;;1.00;1.00;;;;;;;15.31;90.86;96687.72;5097316;28;20187;-57
2021/07/01 05:57:38;;;;;;;1.17;1.13;;;;;;;15.24;89.96;96686.34;5099073;28;20199;-59
2021/07/01 06:00:09;;;;;;;1.43;1.33;;;;;;;15.44;89.61;96690.91;5111382;28;20180;-58
2021/07/01 06:02:34;;;;;;;1.20;1.10;;;;;;;15.59;89.00;96691.00;5095961;28;20686;-59
2021/07/01 06:05:00;;;;;;;1.07;1.07;;;;;;;15.65;88.77;96703.97;5097837;28;20203;-59
2021/07/01 06:07:26;;;;;;;1.40;1.30;;;;;;;15.60;88.28;96703.97;5107295;28;20199;-58
2021/07/01 06:09:53;;;;;;;1.27;1.17;;;;;;;15.54;87.90;96705.00;5104277;28;20270;-59
2021/07/01 06:12:21;;;;;;;1.23;1.23;;;;;;;15.63;88.11;96707.91;5113132;28;20534;-57
2021/07/01 06:14:47;;;;;;;1.27;1.23;;;;;;;15.85;87.29;96699.75;5093282;28;20181;-56
2021/07/01 06:17:16;;;;;;;1.10;1.10;;;;;;;15.91;85.52;96712.75;5100187;28;20232;-60
2021/07/01 06:19:42;;;;;;;1.40;1.40;;;;;;;16.05;85.89;96711.16;5095269;28;20557;-58
2021/07/01 06:22:07;;;;;;;1.40;1.40;;;;;;;16.19;84.20;96698.22;5110706;28;20206;-58
2021/07/01 06:24:34;;;;;;;1.20;1.20;;;;;;;16.22;83.37;96710.91;5097089;28;20183;-58
2021/07/01 06:27:01;;;;;;;1.40;1.40;;;;;;;16.08;84.01;96715.13;5107463;28;20192;-58
2021/07/01 06:29:27;;;;;;;1.77;1.70;;;;;;;16.10;84.56;96707.75;5093035;28;20196;-60
2021/07/01 06:31:52;;;;;;;1.50;1.50;;;;;;;16.01;84.03;96710.09;5096198;28;20636;-58
2021/07/01 06:34:18;;;;;;;1.80;1.70;;;;;;;15.62;85.41;96715.03;5091565;28;20185;-60
2021/07/01 06:36:45;;;;;;;1.80;1.70;;;;;;;15.53;86.14;96710.53;5101613;28;20246;-57
2021/07/01 06:39:13;;;;;;;1.70;1.60;;;;;;;15.53;86.26;96718.44;5104774;28;20220;-57
2021/07/01 06:41:44;;;;;;;1.80;1.70;;;;;;;15.63;85.95;96707.91;5099156;28;20188;-57
2021/07/01 06:44:12;;;;;;;1.70;1.70;;;;;;;15.60;85.55;96713.72;5092992;28;20169;-58
2021/07/01 06:46:39;;;;;;;2.10;1.90;;;;;;;15.69;85.44;96720.88;5093928;28;20768;-58
2021/07/01 06:49:05;;;;;;;1.97;1.87;;;;;;;15.44;86.03;96704.09;5104322;28;20187;-60
2021/07/01 06:51:41;;;;;;;2.00;1.90;;;;;;;15.39;86.68;96716.25;5101120;28;20181;-57
2021/07/01 06:54:17;;;;;;;2.43;1.80;;;;;;;15.45;86.89;96732.91;5097250;28;20172;-58
2021/07/01 06:56:44;;;;;;;1.80;1.70;;;;;;;15.67;86.23;96722.97;5093286;28;20574;-58
2021/07/01 06:59:11;;;;;;;2.27;1.60;;;;;;;15.71;85.20;96734.63;5098922;28;20189;-60
2021/07/01 07:01:37;;;;;;;1.80;1.70;;;;;;;15.75;85.88;96729.63;5096619;28;20202;-58
2021/07/01 07:04:03;;;;;;;1.70;1.60;;;;;;;15.88;85.39;96729.13;5103030;28;20211;-61
2021/07/01 07:06:29;;;;;;;1.50;1.50;;;;;;;16.07;84.25;96724.91;5106317;28;20191;-60
2021/07/01 07:08:55;;;;;;;1.77;1.67;;;;;;;16.05;84.98;96728.91;5109120;28;20894;-60
2021/07/01 07:11:21;;;;;;;1.60;1.50;;;;;;;15.95;85.56;96728.84;5101142;28;20220;-59
2021/07/01 07:13:46;;;;;;;1.23;1.23;;;;;;;16.01;85.26;96735.75;5096901;28;20302;-58
2021/07/01 07:16:12;;;;;;;1.37;1.37;;;;;;;16.01;84.33;96730.47;5101333;28;20187;-55
2021/07/01 07:18:41;;;;;;;1.80;1.70;;;;;;;16.09;83.43;96736.03;5094012;28;20176;-56
2021/07/01 07:21:11;;;;;;;1.90;1.83;;;;;;;15.85;83.25;96736.78;5093171;28;20176;-57
2021/07/01 07:23:37;;;;;;;1.60;1.50;;;;;;;15.84;84.41;96732.53;5111021;28;20250;-58
2021/07/01 07:26:13;;;;;;;1.70;1.60;;;;;;;15.96;83.76;96735.75;5103943;28;20212;-58
2021/07/01 07:28:41;;;;;;;1.80;1.70;;;;;;;16.23;83.30;96734.47;5101856;28;20168;-55
2021/07/01 07:31:09;;;;;;;2.17;1.97;;;;;;;16.35;81.69;96738.69;5102989;28;20785;-55
2021/07/01 07:33:35;;;;;;;2.00;1.90;;;;;;;16.56;81.36;96730.50;5090171;28;20272;-57
2021/07/01 07:36:01;;;;;;;1.80;1.70;;;;;;;16.78;80.58;96729.44;5095634;28;20263;-60
2021/07/01 07:38:27;;;;;;;1.77;1.67;;;;;;;16.96;79.73;96736.84;5106802;28;20220;-56
2021/07/01 07:40:54;;;;;;;2.00;1.90;;;;;;;17.01;79.43;96734.97;5099123;28;20195;-58
2021/07/01 07:43:23;;;;;;;2.10;2.00;;;;;;;17.63;77.77;96739.03;5100452;28;20661;-61
2021/07/01 07:45:52;;;;;;;2.57;2.43;;;;;;;17.92;76.01;96733.06;5107688;28;20180;-56
2021/07/01 07:48:18;;;;;;;2.87;2.67;;;;;;;18.35;74.39;96732.22;5085485;28;20192;-60
2021/07/01 07:50:50;;;;;;;2.70;2.60;;;;;;;18.44;73.46;96732.44;5091249;28;20188;-57
2021/07/01 07:53:24;;;;;;;3.30;2.43;;;;;;;18.66;72.04;96733.63;5105210;28;20188;-57
2021/07/01 07:55:59;;;;;;;2.37;2.27;;;;;;;18.44;72.33;96735.09;5104970;28;20176;-59
2021/07/01 07:58:26;;;;;;;2.30;2.20;;;;;;;18.61;71.56;96735.53;5087952;28;20200;-55
2021/07/01 08:00:53;;;;;;;2.43;2.23;;;;;;;18.77;70.60;96731.66;5093677;28;20633;-59
2021/07/01 08:03:19;;;;;;;2.57;2.37;;;;;;;19.07;68.98;96735.84;5097842;28;20708;-60
2021/07/01 08:05:45;;;;;;;2.63;2.53;;;;;;;19.06;69.25;96735.06;5103108;28;20188;-56
2021/07/01 08:08:15;;;;;;;2.50;2.40;;;;;;;19.30;69.00;96735.09;5095204;28;20485;-57
2021/07/01 08:10:44;;;;;;;2.23;2.13;;;;;;;19.06;68.12;96734.28;5103744;28;20184;-57
2021/07/01 08:13:09;;;;;;;2.10;2.00;;;;;;;18.84;68.49;96731.31;5105776;28;20184;-57
2021/07/01 08:15:37;;;;;;;2.47;2.30;;;;;;;18.71;68.39;96732.78;5100632;28;20183;-57
2021/07/01 08:18:03;;;;;;;2.30;2.20;;;;;;;18.52;68.74;96729.19;5101943;28;20188;-58
2021/07/01 08:20:29;;;;;;;2.20;2.10;;;;;;;18.50;68.50;96732.09;5095850;28;20187;-55
2021/07/01 08:22:56;;;;;;;2.33;2.17;;;;;;;18.83;67.27;96729.75;5106300;28;20549;-57
2021/07/01 08:25:23;;;;;;;2.40;2.20;;;;;;;18.74;67.94;96736.72;5093045;28;21060;-59
2021/07/01 08:27:51;;;;;;;2.43;2.33;;;;;;;18.59;67.70;96732.34;5097929;28;20188;-58
2021/07/01 08:30:19;;;;;;;2.38;2.20;;;;;;;18.87;66.18;96728.91;5108232;28;20224;-57
2021/07/01 08:32:53;;;;;;;2.30;2.20;;;;;;;19.18;66.24;96725.91;5093289;28;20180;-57
2021/07/01 08:35:21;;;;;;;2.13;2.03;;;;;;;19.76;65.01;96738.00;5086949;28;20191;-60
2021/07/01 08:37:51;;;;;;;2.10;2.00;;;;;;;19.56;63.39;96729.50;5097299;28;20229;-58
2021/07/01 08:40:18;;;;;;;2.15;2.05;;;;;;;20.01;63.16;96728.09;5101463;28;20212;-57
2021/07/01 08:42:44;;;;;;;2.17;2.08;;;;;;;20.50;61.73;96731.13;5105785;28;20203;-57
2021/07/01 08:45:12;;;;;;;2.05;1.95;;;;;;;20.43;61.53;96735.22;5093995;28;20199;-56
2021/07/01 08:47:43;;;;;;;1.83;1.80;;;;;;;20.16;61.94;96728.69;5105713;28;20177;-59
2021/07/01 08:50:16;;;;;;;2.20;2.10;;;;;;;19.62;63.30;96736.31;5095641;28;20189;-56
2021/07/01 08:53:04;;;;;;;1.98;1.88;;;;;;;19.78;63.25;96737.75;5092354;28;20172;-58
2021/07/01 08:55:30;;;;;;;2.08;1.90;;;;;;;19.74;63.04;96739.38;5109376;28;20629;-55
2021/07/01 08:57:57;;;;;;;2.03;1.92;;;;;;;19.30;63.03;96745.72;5099886;28;20198;-55
2021/07/01 09:00:24;;;;;;;1.95;1.85;;;;;;;19.05;63.56;96743.34;5108702;28;20210;-55
2021/07/01 09:02:57;;;;;;;1.92;1.83;;;;;;;18.66;65.17;96746.88;5101423;28;20203;-55
2021/07/01 09:05:27;;;;;;;1.97;1.87;;;;;;;18.70;65.86;96757.72;5089233;28;20268;-56
2021/07/01 09:07:53;;;;;;;2.10;2.00;;;;;;;18.33;66.38;96754.81;5107345;28;20187;-57
2021/07/01 09:10:22;;;;;;;2.00;1.90;;;;;;;18.23;67.05;96750.34;5095247;28;20206;-61
2021/07/01 09:12:52;;;;;;;1.95;1.85;;;;;;;18.11;67.87;96741.97;5089616;28;20195;-55
2021/07/01 09:15:18;;;;;;;2.30;1.90;;;;;;;18.43;66.97;96755.53;5103449;28;20538;-59
2021/07/01 09:17:49;;;;;;;6.47;1.90;;;;;;;19.05;65.52;96744.13;5089285;28;20234;-56
2021/07/01 09:20:41;;;;;;;2.95;1.77;;;;;;;19.93;62.93;96753.50;5078833;28;20217;-58
2021/07/01 09:23:09;;;;;;;1.92;1.55;;;;;;;20.54;60.96;96750.75;5096156;28;20212;-57
2021/07/01 09:25:36;;;;;;;1.67;1.58;;;;;;;20.72;60.32;96744.59;5106700;28;20184;-57
2021/07/01 09:28:03;;;;;;;1.90;1.60;;;;;;;20.53;58.87;96754.50;5098091;28;20245;-56
2021/07/01 09:30:30;;;;;;;2.47;1.70;;;;;;;19.88;60.58;96757.00;5104720;28;20188;-59
2021/07/01 09:32:58;;;;;;;1.88;1.77;;;;;;;19.64;60.82;96763.44;5103956;28;20187;-57
2021/07/01 09:35:25;;;;;;;1.63;1.53;;;;;;;19.14;62.24;96757.59;5095036;28;20180;-56
2021/07/01 09:37:52;;;;;;;1.85;1.75;;;;;;;18.61;64.00;96760.19;5099697;28;20208;-59
2021/07/01 09:40:19;;;;;;;1.70;1.60;;;;;;;18.90;63.54;96756.75;5103551;28;20186;-60
2021/07/01 09:43:00;;;;;;;1.83;1.73;;;;;;;19.00;63.08;96757.44;5093931;28;20192;-58
2021/07/01 09:45:27;;;;;;;3.03;2.00;;;;;;;18.94;62.87;96755.94;5080993;28;20179;-54
2021/07/01 09:47:55;;;;;;;1.60;1.60;;;;;;;19.34;62.47;96760.00;5100739;28;20206;-56
2021/07/01 09:50:24;;;;;;;2.70;1.65;;;;;;;19.38;61.52;96757.59;5095541;28;20192;-59
2021/07/01 09:52:53;;;;;;;1.85;1.75;;;;;;;19.41;60.35;96762.34;5106942;28;20652;-54
2021/07/01 09:55:19;;;;;;;1.80;1.70;;;;;;;19.41;60.33;96765.00;5095753;28;20593;-61
2021/07/01 09:57:48;;;;;;;2.10;1.92;;;;;;;19.84;59.93;96766.63;5096406;28;20192;-56
2021/07/01 10:00:14;;;;;;;1.52;1.42;;;;;;;20.57;57.73;96757.34;5099872;28;20181;-56
2021/07/01 10:02:40;;;;;;;1.60;1.50;;;;;;;21.03;55.55;96746.72;5100023;28;20207;-55
2021/07/01 10:05:08;;;;;;;1.50;1.50;;;;;;;21.29;55.14;96755.09;5099148;28;20183;-57
2021/07/01 10:07:34;;;;;;;1.75;1.65;;;;;;;21.15;55.55;96760.41;5108468;28;21922;-55
2021/07/01 10:10:12;;;;;;;1.75;1.65;;;;;;;21.59;54.97;96751.81;5089227;28;20275;-57
2021/07/01 10:12:52;;;;;;;1.65;1.55;;;;;;;21.32;54.45;96754.50;5093705;28;20255;-57
2021/07/01 10:15:26;;;;;;;1.52;1.40;;;;;;;20.92;55.71;96754.13;5102129;28;20249;-60
2021/07/01 10:18:11;;;;;;;1.52;1.42;;;;;;;20.59;56.00;96761.31;5088653;28;20187;-55
2021/07/01 10:20:45;;;;;;;1.60;1.50;;;;;;;20.88;55.93;96761.13;5100094;28;20918;-55
2021/07/01 10:23:26;;;;;;;1.50;1.40;;;;;;;20.57;55.83;96757.34;5109555;28;20203;-57
2021/07/01 10:25:54;;;;;;;1.40;1.40;;;;;;;20.29;56.21;96762.53;5099993;28;20172;-57
2021/07/01 10:28:22;;;;;;;1.40;1.10;;;;;;;20.20;57.24;96766.94;5102332;28;20259;-60
2021/07/01 10:30:58;;;;;;;1.35;1.35;;;;;;;20.24;57.46;96762.63;5106719;28;20188;-56
2021/07/01 10:33:29;;;;;;;1.52;1.42;;;;;;;20.04;58.35;96764.78;5098166;28;20593;-56
2021/07/01 10:35:59;;;;;;;1.30;1.25;;;;;;;19.91;58.37;96767.06;5111468;28;20225;-55
2021/07/01 10:38:25;;;;;;;1.25;1.25;;;;;;;20.01;58.53;96766.13;5104313;28;20236;-57
2021/07/01 10:40:53;;;;;;;1.52;1.42;;;;;;;20.15;58.29;96766.22;5110276;28;20179;-57
2021/07/01 10:43:21;;;;;;;1.20;1.20;;;;;;;20.22;57.64;96769.31;5098033;28;20203;-60
2021/07/01 10:45:57;;;;;;;2.05;1.50;;;;;;;19.63;58.99;96770.63;5097017;28;20233;-56
2021/07/01 10:48:23;;;;;;;6.13;1.90;;;;;;;19.33;59.63;96766.44;5093123;28;20207;-56
2021/07/01 10:50:50;;;;;;;1.27;1.20;;;;;;;19.12;60.34;96765.03;5102151;28;20261;-57
2021/07/01 10:53:43;;;;;;;1.42;1.33;;;;;;;19.07;60.35;96768.53;5109542;28;20188;-57
2021/07/01 10:56:21;;;;;;;1.27;1.27;;;;;;;18.88;61.03;96777.50;5093616;28;20191;-56
2021/07/01 10:58:57;;;;;;;1.27;1.27;;;;;;;18.85;61.12;96775.38;5086652;28;20180;-56
2021/07/01 11:01:30;;;;;;;1.30;1.30;;;;;;;18.86;61.56;96776.97;5097082;28;20625;-60
2021/07/01 11:04:13;;;;;;;1.77;1.67;;;;;;;18.82;61.31;96786.59;5099456;28;20231;-57
2021/07/01 11:06:43;;;;;;;1.17;1.17;;;;;;;18.63;62.15;96784.59;5084685;28;20525;-56
2021/07/01 11:09:11;;;;;;;1.60;1.50;;;;;;;18.61;62.77;96783.31;5107825;28;20264;-56
2021/07/01 11:11:39;;;;;;;1.40;1.40;;;;;;;18.02;69.24;96783.38;5100092;28;20188;-57
2021/07/01 11:14:10;;;;;;;1.70;1.70;;;;;;;17.29;75.77;96780.47;5102812;28;20239;-57
2021/07/01 11:16:40;;;;;;;2.20;2.10;;;;;;;16.71;78.94;96790.63;5100645;28;20539;-56
2021/07/01 11:19:08;;;;;;;2.37;2.27;;;;;;;16.21;81.49;96791.34;5100770;28;20295;-56
2021/07/01 11:21:35;;;;;;;2.20;2.00;;;;;;;16.11;82.62;96794.72;5107219;28;20188;-57
2021/07/01 11:24:17;;;;;;;2.03;1.93;;;;;;;15.89;84.36;96795.97;5092054;28;20189;-54
2021/07/01 11:26:49;;;;;;;1.97;1.87;;;;;;;15.96;84.36;96793.91;5077589;28;20180;-56
2021/07/01 11:29:15;;;;;;;1.90;1.80;;;;;;;16.10;84.10;96790.53;5078750;28;20172;-55